Flight Track Log - Related Links

Times and Time Zones

All times are in EST time to prevent confusion due to time zone crossing. See the N541JD flight status page for this flight to view local times or setup timezone preferences in your user account.

Time Position Orientation Groundspeed Altitude Reporting Facility
EST Latitude Longitude Course Direction KTS MPH feet Rate Location/Type
Tue 07:10:36 PM 27.9333 -82.7000 319° Northwest 121 139 600  Level Tampa TRACON
Tue 07:11:36 PM 27.9667 -82.7167 336° Northwest 136 157 1,400 900 Climbing Tampa TRACON
Tue 07:12:36 PM 28.0000 -82.7333 336° Northwest 132 152 2,400 900 Climbing Tampa TRACON
Tue 07:13:36 PM 28.0333 -82.7500 336° Northwest 146 168 3,200 900 Climbing Tampa TRACON
Tue 07:14:36 PM 28.0667 -82.7500 360° North 136 157 4,200 950 Climbing Tampa TRACON
Tue 07:15:36 PM 28.1000 -82.7667 336° Northwest 128 147 5,100 903 Climbing Tampa TRACON
Tue 07:17:42 PM 28.1728 -82.7747 354° North 152 175 7,000 871 Climbing Jacksonville Center
Tue 07:18:42 PM 28.2061 -82.7819 349° North 133 153 7,800 550 Climbing Jacksonville Center
Tue 07:19:42 PM 28.2417 -82.7911 347° North 127 146 8,100 200 Climbing Jacksonville Center
Tue 07:20:42 PM 28.2856 -82.7958 355° North 133 153 8,200 50 Climbing Jacksonville Center
Tue 07:21:42 PM 28.3294 -82.8078 347° North 144 166 8,200  Level Jacksonville Center
Tue 07:22:42 PM 28.3711 -82.8147 352° North 149 171 8,200  Level Jacksonville Center
Tue 07:23:42 PM 28.4150 -82.8217 352° North 149 171 8,200  Level Jacksonville Center
Tue 07:24:42 PM 28.4589 -82.8289 352° North 149 171 8,200  Level Jacksonville Center
Tue 07:25:42 PM 28.5006 -82.8406 346° North 154 177 8,200  Level Jacksonville Center
Tue 07:26:42 PM 28.5422 -82.8478 351° North 154 177 8,200  Level Jacksonville Center
Tue 07:27:42 PM 28.5861 -82.8572 349° North 154 177 8,200  Level Jacksonville Center
Tue 07:28:42 PM 28.6300 -82.8642 352° North 154 177 8,200  Level Jacksonville Center
Tue 07:29:42 PM 28.6717 -82.8714 351° North 154 177 8,200  Level Jacksonville Center
Tue 07:30:42 PM 28.7197 -82.8808 350° North 154 177 8,200  Level Jacksonville Center
Tue 07:31:42 PM 28.7633 -82.8878 352° North 154 177 8,200  Level Jacksonville Center
Tue 07:32:42 PM 28.8072 -82.8950 352° North 154 177 8,200  Level Jacksonville Center
Tue 07:33:42 PM 28.8511 -82.9044 349° North 159 183 8,200  Level Jacksonville Center
Tue 07:34:42 PM 28.8908 -82.9139 348° North 159 183 8,200  Level Jacksonville Center
Tue 07:35:42 PM 28.9347 -82.9211 352° North 159 183 8,200  Level Jacksonville Center
Tue 07:36:42 PM 28.9764 -82.9306 349° North 159 183 8,200 -50 Level Jacksonville Center
Tue 07:37:42 PM 29.0181 -82.9378 351° North 159 183 8,100  Descending Jacksonville Center
Tue 07:38:43 PM 29.0578 -82.9447 351° North 154 177 8,200 50 Climbing Jacksonville Center
Tue 07:39:42 PM 29.0911 -82.9497 353° North 149 171 8,200  Level Jacksonville Center
Tue 07:40:42 PM 29.1414 -82.9592 351° North 149 171 8,200  Level Jacksonville Center
Tue 07:41:42 PM 29.1831 -82.9686 349° North 143 165 8,200  Level Jacksonville Center
Tue 07:42:42 PM 29.2269 -82.9783 349° North 143 165 8,200  Level Jacksonville Center
Tue 07:43:42 PM 29.2664 -82.9856 351° North 143 165 8,200  Level Jacksonville Center
Tue 07:44:42 PM 29.3083 -82.9925 352° North 143 165 8,200  Level Jacksonville Center
Tue 07:45:42 PM 29.3458 -83.0211 326° Northwest 143 165 8,200  Level Jacksonville Center
Tue 07:46:43 PM 29.3769 -83.0522 319° Northwest 148 170 8,200  Level Jacksonville Center
Tue 07:47:42 PM 29.4103 -83.0833 321° Northwest 153 176 8,200  Level Jacksonville Center
Tue 07:48:42 PM 29.4439 -83.1167 319° Northwest 153 176 8,200 -50 Level Jacksonville Center
Tue 07:49:42 PM 29.4792 -83.1478 322° Northwest 159 183 8,100 -50 Descending Jacksonville Center
Tue 07:50:42 PM 29.5106 -83.1789 319° Northwest 159 183 8,100 50 Level Jacksonville Center
Tue 07:51:42 PM 29.5458 -83.2100 323° Northwest 159 183 8,200  Climbing Jacksonville Center
Tue 07:52:42 PM 29.5792 -83.2411 321° Northwest 159 183 8,100 -50 Descending Jacksonville Center
Tue 07:53:42 PM 29.6125 -83.2725 321° Northwest 159 183 8,100 50 Level Jacksonville Center
Tue 07:54:42 PM 29.6458 -83.3036 321° Northwest 159 183 8,200  Climbing Jacksonville Center
Tue 07:55:42 PM 29.6792 -83.3347 321° Northwest 159 183 8,100  Descending Jacksonville Center
Tue 07:56:43 PM 29.7125 -83.3661 321° Northwest 159 183 8,200 50 Climbing Jacksonville Center
Tue 07:57:42 PM 29.7456 -83.3950 323° Northwest 159 183 8,200  Level Jacksonville Center
Tue 07:58:43 PM 29.7789 -83.4286 319° Northwest 159 183 8,200  Level Jacksonville Center
Tue 07:59:43 PM 29.8100 -83.4600 319° Northwest 159 183 8,200  Level Jacksonville Center
Tue 08:00:42 PM 29.8414 -83.4889 321° Northwest 159 183 8,200  Level Jacksonville Center
Tue 08:01:43 PM 29.8744 -83.5178 323° Northwest 159 183 8,200  Level Jacksonville Center
Tue 08:02:42 PM 29.9078 -83.5492 321° Northwest 159 183 8,200 -50 Level Jacksonville Center
Tue 08:03:42 PM 29.9389 -83.5781 321° Northwest 159 183 8,100 -50 Descending Jacksonville Center
Tue 08:04:42 PM 29.9700 -83.6119 317° Northwest 159 183 8,100  Level Jacksonville Center
Tue 08:05:42 PM 30.0033 -83.6386 325° Northwest 159 183 8,100  Level Jacksonville Center
Tue 08:06:42 PM 30.0344 -83.6700 319° Northwest 159 183 8,100  Level Jacksonville Center
Tue 08:07:42 PM 30.0656 -83.6989 321° Northwest 154 177 8,100  Level Jacksonville Center
Tue 08:08:42 PM 30.0967 -83.7281 321° Northwest 154 177 8,100  Level Jacksonville Center
Tue 08:09:42 PM 30.1278 -83.7572 321° Northwest 154 177 8,100  Level Jacksonville Center
Tue 08:10:42 PM 30.1611 -83.7886 321° Northwest 154 177 8,100  Level Jacksonville Center
Tue 08:36:51 PM 30.9903 -84.5889 319° Northwest 147 169 8,100  Level Jacksonville Center
Tue 08:36:57 PM 30.9922 -84.5914 312° West 148 170 8,100  Level Jacksonville Center
Tue 08:37:00 PM 31.0019 -84.6032 320° Northwest  Level FlightAware Approximate
Tue 08:37:58 PM 31.0253 -84.6236 320° Northwest 146 168 8,100  Level Jacksonville Center
Tue 08:38:00 PM 31.0338 -84.6344 320° Northwest  Level FlightAware Approximate
Tue 08:38:59 PM 31.0561 -84.6508 323° Northwest 146 168 8,100  Level Jacksonville Center
Tue 08:39:00 PM 31.0657 -84.6657 320° Northwest  Level FlightAware Approximate
Tue 08:39:59 PM 31.0869 -84.6853 316° Northwest 146 168 8,100  Level Jacksonville Center
Tue 08:40:00 PM 31.0973 -84.6973 319° Northwest  Level FlightAware Approximate
Tue 08:41:00 PM 31.1290 -84.7289 319° Northwest  Level FlightAware Approximate
Tue 08:41:00 PM 31.1200 -84.7150 322° Northwest 145 167 8,100  Level Jacksonville Center
Tue 08:42:00 PM 31.1606 -84.7606 319° Northwest  Level FlightAware Approximate
Tue 08:42:00 PM 31.1508 -84.7447 320° Northwest 145 167 8,100  Level Jacksonville Center
Tue 08:43:01 PM 31.1817 -84.7769 318° Northwest 146 168 8,100  Level Jacksonville Center
Tue 08:44:02 PM 31.2125 -84.8042 323° Northwest 146 168 8,100  Level Jacksonville Center
Tue 08:45:02 PM 31.2456 -84.8389 318° Northwest 145 167 8,100  Level Jacksonville Center
Tue 08:46:03 PM 31.2742 -84.8686 318° Northwest 146 168 8,100  Level Jacksonville Center
Tue 08:47:03 PM 31.3072 -84.8986 322° Northwest 147 169 8,100  Level Jacksonville Center
Tue 08:48:04 PM 31.3381 -84.9283 321° Northwest 148 170 8,100  Level Jacksonville Center
Tue 08:49:05 PM 31.3689 -84.9608 318° Northwest 145 167 8,100  Level Jacksonville Center
Tue 08:50:05 PM 31.4039 -84.9931 322° Northwest 146 168 8,100  Level Jacksonville Center
Tue 08:51:06 PM 31.4325 -85.0231 318° Northwest 147 169 8,100  Level Jacksonville Center
Tue 08:52:06 PM 31.4633 -85.0556 318° Northwest 146 168 8,100  Level Jacksonville Center
Tue 08:53:07 PM 31.4961 -85.0856 322° Northwest 146 168 8,100  Level Jacksonville Center
Tue 08:54:08 PM 31.5269 -85.1153 321° Northwest 146 168 8,100  Level Jacksonville Center
Tue 08:55:08 PM 31.5578 -85.1453 320° Northwest 147 169 8,100  Level Jacksonville Center
Tue 08:56:09 PM 31.5906 -85.1803 318° Northwest 148 170 8,100  Level Jacksonville Center
Tue 08:57:09 PM 31.6233 -85.2103 322° Northwest 148 170 8,100  Level Jacksonville Center
Tue 08:58:10 PM 31.6519 -85.2428 316° Northwest 147 169 8,100  Level Jacksonville Center
Tue 08:59:42 PM 31.7000 -85.2833 324° Northwest 149 171 8,100  Level Atlanta TRACON
Tue 09:00:48 PM 31.7333 -85.3167 320° Northwest 148 170 8,100  Level Atlanta TRACON
Tue 09:02:00 PM 31.7667 -85.3500 320° Northwest 148 170 8,100  Level Atlanta TRACON
Tue 09:02:54 PM 31.8000 -85.3833 320° Northwest 147 169 8,100  Level Atlanta TRACON
Tue 09:03:54 PM 31.8333 -85.4167 320° Northwest 146 168 8,100  Level Atlanta TRACON
Tue 09:04:48 PM 31.8667 -85.4500 320° Northwest 144 166 8,100  Level Atlanta TRACON
Tue 09:05:48 PM 31.9000 -85.4833 320° Northwest 145 167 8,100  Level Atlanta TRACON
Tue 09:06:48 PM 31.9167 -85.5000 320° Northwest 145 167 8,100  Level Atlanta TRACON
Tue 09:07:42 PM 31.9500 -85.5333 320° Northwest 147 169 8,100 -4 Level Atlanta TRACON
Tue 09:34:15 PM 32.7581 -86.3606 320° Northwest 144 166 8,000 -8 Descending Atlanta Center
Tue 09:34:21 PM 32.7619 -86.3658 311° West 145 167 7,900 -627 Descending Atlanta Center
Tue 09:35:00 PM 32.8113 -86.4109 320° Northwest  Level FlightAware Approximate
Tue 09:35:22 PM 32.7969 -86.3964 324° Northwest 158 182 7,300  Level Atlanta Center
Tue 09:36:00 PM 32.8431 -86.4428 320° Northwest  Level FlightAware Approximate
Tue 09:36:22 PM 32.8297 -86.4317 318° Northwest 169 194 6,700  Level Atlanta Center
Tue 09:37:00 PM 32.8750 -86.4747 320° Northwest  Level FlightAware Approximate
Tue 09:37:23 PM 32.8664 -86.4722 317° Northwest 172 198 5,900  Level Atlanta Center
Tue 09:38:00 PM 32.9068 -86.5067 320° Northwest  Level FlightAware Approximate
Tue 09:38:23 PM 32.9033 -86.5131 317° Northwest 170 196 5,300  Level Atlanta Center
Tue 09:39:00 PM 32.9387 -86.5386 320° Northwest  Level FlightAware Approximate
Tue 09:39:24 PM 32.9339 -86.5411 322° Northwest 168 193 4,600  Level Atlanta Center
Tue 09:40:25 PM 32.9708 -86.5742 323° Northwest 167 192 4,200 -248 Descending Atlanta Center
Tue 09:41:25 PM 33.0056 -86.6150 315° West 165 190 4,100 -50 Descending Atlanta Center
Tue 09:42:26 PM 33.0422 -86.6506 321° Northwest 150 173 4,100  Level Atlanta Center
Tue 09:44:00 PM 33.0887 -86.7037 316° Northwest  Level FlightAware Approximate
Tue 09:51:00 PM 33.3000 -86.9167 320° Northwest  Level FlightAware Approximate
Tue 09:52:00 PM 33.3126 -86.9263 320° Northwest  Level Estimated
Tue 09:53:00 PM 33.3126 -86.9263 320° Northwest  Level Estimated

Login

Don't have an account? Register now (free) for customized features, flight alerts, and more!